Time;durP1;ratioP1;P1;durP2;ratioP2;P2;SDS_P1;SDS_P2;PMS_P1;PMS_P2;Temp;Humidity;BMP_temperature;BMP_pressure;BME280_temperature;BME280_humidity;BME280_pressure;Samples;Min_cycle;Max_cycle;Signal;HPM_P1;HPM_P2
2022/03/14 00:01:45;;;;;;;;;;;3.90;67.30;;;;;;5205005;28;20308;-78
2022/03/14 00:04:17;;;;;;;;;;;4.50;67.80;;;;;;5178932;28;20316;-77
2022/03/14 00:06:51;;;;;;;;;;;4.00;67.80;;;;;;5203408;28;19928;-77
2022/03/14 00:09:23;;;;;;;;;;;3.90;67.70;;;;;;5202436;28;20395;-79
2022/03/14 00:11:57;;;;;;;;;;;3.90;67.50;;;;;;5193658;28;19932;-77
2022/03/14 00:14:29;;;;;;;;;;;3.80;67.40;;;;;;5198829;28;19925;-79
2022/03/14 00:17:08;;;;;;;;;;;3.80;67.60;;;;;;5179567;28;19925;-78
2022/03/14 00:19:41;;;;;;;;;;;3.80;67.00;;;;;;5207944;28;19925;-78
2022/03/14 00:22:15;;;;;;;;;;;3.80;67.40;;;;;;5211892;28;19933;-75
2022/03/14 00:24:47;;;;;;;;;;;3.70;68.20;;;;;;5195569;28;20474;-79
2022/03/14 00:27:19;;;;;;;;;;;3.70;68.00;;;;;;5208107;28;20305;-78
2022/03/14 00:29:52;;;;;;;;;;;3.70;67.90;;;;;;5191615;28;19947;-79
2022/03/14 00:32:24;;;;;;;;;;;3.70;68.30;;;;;;5181192;28;19944;-80
2022/03/14 00:34:57;;;;;;;;;;;3.70;68.10;;;;;;5209276;28;20439;-80
2022/03/14 00:37:29;;;;;;;;;;;3.70;68.00;;;;;;5208791;28;20392;-79
2022/03/14 00:40:03;;;;;;;;;;;3.70;68.60;;;;;;5204011;28;19928;-76
2022/03/14 00:42:35;;;;;;;;;;;3.70;68.30;;;;;;5207936;28;19933;-79
2022/03/14 00:45:08;;;;;;;;;;;3.60;68.50;;;;;;5190148;28;19925;-76
2022/03/14 00:47:40;;;;;;;;;;;3.60;67.20;;;;;;5206361;28;19928;-76
2022/03/14 00:50:13;;;;;;;;;;;3.60;67.10;;;;;;5205233;28;19927;-75
2022/03/14 00:52:46;;;;;;;;;;;3.60;68.60;;;;;;5185813;28;20386;-77
2022/03/14 00:55:18;;;;;;;;;;;3.70;68.80;;;;;;5191059;28;19924;-77
2022/03/14 00:57:50;;;;;;;;;;;3.60;68.80;;;;;;5186187;28;20359;-76
2022/03/14 01:00:23;;;;;;;;;;;3.60;69.50;;;;;;5201993;28;19932;-75
2022/03/14 01:02:55;;;;;;;;;;;3.50;69.30;;;;;;5204501;28;19925;-77
2022/03/14 01:05:28;;;;;;;;;;;3.50;69.20;;;;;;5189112;28;19925;-76
2022/03/14 01:08:00;;;;;;;;;;;3.60;69.50;;;;;;5204503;28;19935;-78
2022/03/14 01:10:33;;;;;;;;;;;3.60;69.40;;;;;;5186594;28;19925;-77
2022/03/14 01:13:06;;;;;;;;;;;3.60;69.50;;;;;;5184898;28;19970;-77
2022/03/14 01:15:38;;;;;;;;;;;3.60;69.30;;;;;;5190381;28;19924;-74
2022/03/14 01:18:10;;;;;;;;;;;3.60;69.30;;;;;;5192131;28;19931;-76
2022/03/14 01:20:42;;;;;;;;;;;3.60;69.50;;;;;;5183211;28;19935;-76
2022/03/14 01:23:15;;;;;;;;;;;3.60;68.90;;;;;;5176383;28;20487;-76
2022/03/14 01:25:47;;;;;;;;;;;3.60;69.00;;;;;;5199736;28;20272;-76
2022/03/14 01:31:24;;;;;;;;;;;3.60;68.30;;;;;;5139761;28;20270;-42
2022/03/14 01:33:56;;;;;;;;;;;3.60;68.90;;;;;;5134362;28;20109;-41
2022/03/14 01:36:28;;;;;;;;;;;3.60;70.20;;;;;;5151483;28;19925;-40
2022/03/14 01:39:01;;;;;;;;;;;3.60;70.00;;;;;;5154226;28;19926;-40
2022/03/14 01:41:33;;;;;;;;;;;3.60;69.80;;;;;;5146929;28;19925;-42
2022/03/14 01:44:05;;;;;;;;;;;3.60;70.00;;;;;;5150748;28;20401;-39
2022/03/14 01:46:38;;;;;;;;;;;3.70;69.60;;;;;;5148202;28;19929;-42
2022/03/14 01:49:11;;;;;;;;;;;3.60;69.50;;;;;;5151847;28;20409;-42
2022/03/14 01:51:44;;;;;;;;;;;3.60;69.80;;;;;;5143990;28;19930;-40
2022/03/14 01:54:16;;;;;;;;;;;3.60;69.70;;;;;;5145747;28;19926;-41
2022/03/14 01:56:50;;;;;;;;;;;3.60;69.20;;;;;;5162587;28;19937;-42
2022/03/14 01:59:22;;;;;;;;;;;3.60;68.80;;;;;;5145144;28;20178;-40
2022/03/14 02:01:56;;;;;;;;;;;3.60;70.10;;;;;;5139236;28;20298;-42
2022/03/14 02:04:28;;;;;;;;;;;3.60;69.30;;;;;;5124023;28;19930;-41
2022/03/14 02:07:00;;;;;;;;;;;3.50;69.70;;;;;;5143271;28;19929;-41
2022/03/14 02:09:33;;;;;;;;;;;3.50;69.10;;;;;;5142142;28;19925;-42
2022/03/14 02:12:07;;;;;;;;;;;3.50;69.00;;;;;;5142868;28;19932;-40
2022/03/14 02:14:39;;;;;;;;;;;3.40;70.50;;;;;;5141623;28;19929;-42
2022/03/14 02:17:13;;;;;;;;;;;3.50;69.80;;;;;;5140402;28;19936;-42
2022/03/14 02:19:45;;;;;;;;;;;3.50;71.00;;;;;;5152100;28;19921;-42
2022/03/14 02:22:19;;;;;;;;;;;3.40;70.20;;;;;;5151639;28;19926;-41
2022/03/14 02:24:51;;;;;;;;;;;3.40;70.30;;;;;;5136577;28;20545;-42
2022/03/14 02:27:23;;;;;;;;;;;3.50;72.10;;;;;;5145873;28;19932;-41
2022/03/14 02:29:57;;;;;;;;;;;3.50;71.50;;;;;;5142592;28;20033;-41
2022/03/14 02:32:29;;;;;;;;;;;3.50;71.00;;;;;;5143567;28;20318;-42
2022/03/14 02:35:01;;;;;;;;;;;3.60;69.90;;;;;;5139223;28;19933;-41
2022/03/14 02:37:34;;;;;;;;;;;3.80;69.50;;;;;;5137208;28;19929;-41
2022/03/14 02:40:07;;;;;;;;;;;3.80;70.80;;;;;;5142276;28;19936;-42
2022/03/14 02:42:39;;;;;;;;;;;3.80;70.10;;;;;;5143786;28;19925;-42
2022/03/14 02:45:12;;;;;;;;;;;3.80;71.50;;;;;;5148180;28;19929;-41
2022/03/14 02:47:44;;;;;;;;;;;3.90;70.60;;;;;;5144484;28;19933;-40
2022/03/14 02:50:16;;;;;;;;;;;3.90;70.90;;;;;;5146573;28;20635;-41
2022/03/14 02:52:53;;;;;;;;;;;4.00;71.10;;;;;;5142733;28;19929;-41
2022/03/14 02:55:25;;;;;;;;;;;4.00;70.90;;;;;;5146775;28;19926;-42
2022/03/14 02:57:59;;;;;;;;;;;4.00;70.90;;;;;;5145138;28;19929;-41
2022/03/14 03:00:32;;;;;;;;;;;4.00;70.50;;;;;;5159631;28;20337;-41
2022/03/14 03:03:06;;;;;;;;;;;4.10;71.70;;;;;;5143162;28;19929;-43
2022/03/14 03:05:43;;;;;;;;;;;4.10;71.10;;;;;;5152112;28;20361;-39
2022/03/14 03:08:16;;;;;;;;;;;4.20;71.00;;;;;;5144885;28;20377;-41
2022/03/14 03:10:50;;;;;;;;;;;4.20;71.30;;;;;;5143499;28;19936;-42
2022/03/14 03:13:23;;;;;;;;;;;4.30;69.90;;;;;;5164199;28;19921;-42
2022/03/14 03:15:55;;;;;;;;;;;4.30;70.40;;;;;;5145902;28;19937;-42
2022/03/14 03:18:28;;;;;;;;;;;4.30;70.50;;;;;;5139722;28;20333;-41
2022/03/14 03:21:00;;;;;;;;;;;4.40;70.40;;;;;;5145600;28;19930;-41
2022/03/14 03:23:34;;;;;;;;;;;4.50;70.00;;;;;;5148021;28;20392;-42
2022/03/14 03:26:06;;;;;;;;;;;4.60;69.60;;;;;;5146882;28;20009;-42
2022/03/14 03:28:38;;;;;;;;;;;4.70;67.90;;;;;;5147657;28;19964;-40
2022/03/14 03:31:11;;;;;;;;;;;4.80;68.70;;;;;;5140964;28;19932;-41
2022/03/14 03:33:44;;;;;;;;;;;4.80;67.80;;;;;;5152383;28;20156;-42
2022/03/14 03:36:17;;;;;;;;;;;4.90;68.40;;;;;;5140740;28;19929;-42
2022/03/14 03:38:49;;;;;;;;;;;5.00;68.10;;;;;;5137569;28;19929;-42
2022/03/14 03:41:21;;;;;;;;;;;5.00;68.30;;;;;;5145475;28;19932;-42
2022/03/14 03:43:54;;;;;;;;;;;5.00;68.40;;;;;;5142656;28;19937;-41
2022/03/14 03:46:26;;;;;;;;;;;5.10;68.30;;;;;;5147439;28;19933;-41
2022/03/14 03:48:59;;;;;;;;;;;5.20;67.70;;;;;;5142702;28;19930;-43
2022/03/14 03:51:31;;;;;;;;;;;5.30;68.20;;;;;;5150115;28;19933;-40
2022/03/14 03:54:03;;;;;;;;;;;5.50;68.40;;;;;;5141928;28;19990;-40
2022/03/14 03:56:38;;;;;;;;;;;5.60;69.60;;;;;;5153425;28;19937;-37
2022/03/14 03:59:10;;;;;;;;;;;5.80;70.30;;;;;;5143922;28;19960;-41
2022/03/14 04:01:46;;;;;;;;;;;6.00;71.50;;;;;;5141516;28;19948;-42
2022/03/14 04:04:19;;;;;;;;;;;6.30;72.10;;;;;;5168080;28;20361;-42
2022/03/14 04:06:54;;;;;;;;;;;6.40;72.20;;;;;;5154341;28;19926;-42
2022/03/14 04:09:26;;;;;;;;;;;6.50;73.50;;;;;;5147535;28;19932;-42
2022/03/14 04:11:58;;;;;;;;;;;6.70;73.50;;;;;;5142785;28;19929;-42
2022/03/14 04:14:34;;;;;;;;;;;6.90;73.80;;;;;;5148088;28;19929;-42
2022/03/14 04:17:07;;;;;;;;;;;7.00;74.60;;;;;;5148455;28;19937;-40
2022/03/14 04:19:43;;;;;;;;;;;7.20;74.70;;;;;;5150500;28;19936;-41
2022/03/14 04:22:15;;;;;;;;;;;7.20;74.80;;;;;;5144848;28;19926;-41
2022/03/14 04:24:48;;;;;;;;;;;7.40;75.00;;;;;;5145159;28;20008;-42
2022/03/14 04:27:21;;;;;;;;;;;7.40;75.10;;;;;;5144079;28;20462;-42
2022/03/14 04:29:53;;;;;;;;;;;7.50;75.60;;;;;;5153660;28;20004;-42
2022/03/14 04:32:26;;;;;;;;;;;7.60;75.90;;;;;;5152200;28;19934;-40
2022/03/14 04:34:58;;;;;;;;;;;7.60;75.70;;;;;;5154601;28;19929;-40
2022/03/14 04:37:30;;;;;;;;;;;7.70;76.00;;;;;;5153326;28;19937;-39
2022/03/14 04:40:03;;;;;;;;;;;7.80;76.40;;;;;;5139527;28;19936;-42
2022/03/14 04:42:35;;;;;;;;;;;7.80;75.90;;;;;;5153920;28;19937;-42
2022/03/14 04:45:09;;;;;;;;;;;7.80;76.10;;;;;;5146122;28;19926;-42
2022/03/14 04:47:41;;;;;;;;;;;7.80;75.60;;;;;;5169434;23;20835;-24
2022/03/14 04:50:16;;;;;;;;;;;7.80;76.20;;;;;;5173834;28;19936;-25
2022/03/14 04:52:48;;;;;;;;;;;7.90;76.30;;;;;;5183111;28;19925;-24
2022/03/14 04:55:21;;;;;;;;;;;7.90;76.20;;;;;;5173044;28;20463;-25
2022/03/14 04:57:53;;;;;;;;;;;7.90;76.60;;;;;;5143981;28;20405;-25
2022/03/14 05:00:27;;;;;;;;;;;7.90;76.30;;;;;;5153362;28;19930;-25
2022/03/14 05:03:00;;;;;;;;;;;7.90;76.40;;;;;;5147893;28;19925;-25
2022/03/14 05:05:37;;;;;;;;;;;7.90;76.70;;;;;;5154509;28;19936;-25
2022/03/14 05:08:09;;;;;;;;;;;7.90;76.80;;;;;;5154529;28;19930;-24
2022/03/14 05:10:42;;;;;;;;;;;8.00;76.80;;;;;;5145650;28;19936;-25
2022/03/14 05:13:14;;;;;;;;;;;7.90;77.00;;;;;;5150854;28;20120;-23
2022/03/14 05:15:47;;;;;;;;;;;7.90;77.60;;;;;;5149628;28;19932;-23
2022/03/14 05:18:19;;;;;;;;;;;7.90;77.70;;;;;;5148950;28;19937;-24
2022/03/14 05:20:51;;;;;;;;;;;8.00;77.50;;;;;;5142221;28;19936;-23
2022/03/14 05:23:24;;;;;;;;;;;8.00;78.20;;;;;;5150957;28;19966;-24
2022/03/14 05:25:57;;;;;;;;;;;7.90;78.60;;;;;;5142565;28;20170;-24
2022/03/14 05:28:29;;;;;;;;;;;8.00;79.20;;;;;;5160608;28;19925;-26
2022/03/14 05:31:02;;;;;;;;;;;8.00;79.30;;;;;;5136760;28;19930;-24
2022/03/14 05:33:35;;;;;;;;;;;8.00;79.30;;;;;;5159751;28;19922;-24
2022/03/14 05:36:07;;;;;;;;;;;8.00;79.80;;;;;;5169108;28;19925;-25
2022/03/14 05:38:39;;;;;;;;;;;8.10;79.90;;;;;;5143041;28;19925;-22
2022/03/14 05:41:14;;;;;;;;;;;8.00;80.10;;;;;;5145010;28;19925;-24
2022/03/14 05:43:46;;;;;;;;;;;8.00;80.40;;;;;;5155571;28;20465;-23
2022/03/14 05:46:18;;;;;;;;;;;8.10;80.80;;;;;;5137226;28;19925;-25
2022/03/14 05:48:51;;;;;;;;;;;8.10;80.80;;;;;;5154053;28;19925;-25
2022/03/14 05:51:23;;;;;;;;;;;8.10;80.70;;;;;;5151190;28;19926;-25
2022/03/14 05:53:55;;;;;;;;;;;8.10;81.00;;;;;;5149934;28;20363;-25
2022/03/14 05:56:27;;;;;;;;;;;8.10;81.50;;;;;;5151881;28;19929;-24
2022/03/14 05:59:00;;;;;;;;;;;8.10;82.20;;;;;;5141139;28;19936;-24
2022/03/14 06:01:32;;;;;;;;;;;8.10;81.90;;;;;;5137475;28;24702;-24
2022/03/14 06:04:04;;;;;;;;;;;8.10;82.10;;;;;;5133597;28;20348;-24
2022/03/14 06:06:38;;;;;;;;;;;8.20;82.90;;;;;;5147080;28;19925;-24
2022/03/14 06:09:10;;;;;;;;;;;8.20;82.60;;;;;;5142784;28;19929;-25
2022/03/14 06:11:42;;;;;;;;;;;8.20;82.10;;;;;;5140251;28;20352;-24
2022/03/14 06:14:14;;;;;;;;;;;8.20;82.40;;;;;;5134575;28;19944;-24
2022/03/14 06:16:47;;;;;;;;;;;8.30;82.90;;;;;;5140419;28;19936;-25
2022/03/14 06:19:19;;;;;;;;;;;8.30;83.40;;;;;;5145397;28;19929;-26
2022/03/14 06:21:53;;;;;;;;;;;8.30;83.40;;;;;;5160204;28;19925;-25
2022/03/14 06:24:25;;;;;;;;;;;8.30;83.30;;;;;;5136327;28;20162;-26
2022/03/14 06:26:58;;;;;;;;;;;8.40;83.30;;;;;;5147902;28;20133;-26
2022/03/14 06:29:30;;;;;;;;;;;8.50;83.50;;;;;;5144989;28;19925;-26
2022/03/14 06:32:04;;;;;;;;;;;8.50;83.70;;;;;;5143030;28;19948;-26
2022/03/14 06:34:37;;;;;;;;;;;8.60;83.60;;;;;;5128248;28;19936;-26
2022/03/14 06:37:09;;;;;;;;;;;8.60;83.80;;;;;;5146425;28;21420;-28
2022/03/14 06:39:41;;;;;;;;;;;8.60;83.80;;;;;;5159636;28;20356;-24
2022/03/14 06:42:14;;;;;;;;;;;8.60;83.80;;;;;;5170384;28;19925;-23
2022/03/14 06:44:49;;;;;;;;;;;8.60;83.90;;;;;;5168250;28;19932;-24
2022/03/14 06:47:21;;;;;;;;;;;8.70;83.70;;;;;;5169050;28;19932;-26
2022/03/14 06:49:54;;;;;;;;;;;8.70;83.90;;;;;;5161396;28;20306;-26
2022/03/14 06:52:27;;;;;;;;;;;8.70;83.70;;;;;;5166644;28;20294;-24
2022/03/14 06:54:59;;;;;;;;;;;8.70;83.80;;;;;;5154907;28;19948;-24
2022/03/14 06:57:33;;;;;;;;;;;8.80;83.70;;;;;;5161723;28;19929;-24
2022/03/14 07:00:07;;;;;;;;;;;8.80;83.60;;;;;;5156077;28;19929;-25
2022/03/14 07:02:40;;;;;;;;;;;8.80;83.30;;;;;;5147853;28;19928;-24
2022/03/14 07:05:13;;;;;;;;;;;8.90;82.90;;;;;;5159945;28;20278;-24
2022/03/14 07:07:48;;;;;;;;;;;8.90;82.70;;;;;;5163624;28;19940;-25
2022/03/14 07:10:21;;;;;;;;;;;8.90;82.90;;;;;;5157700;28;19929;-23
2022/03/14 07:12:54;;;;;;;;;;;9.00;82.70;;;;;;5165815;28;19936;-25
2022/03/14 07:15:26;;;;;;;;;;;9.00;82.30;;;;;;5159152;28;20282;-24
2022/03/14 07:17:58;;;;;;;;;;;9.00;81.80;;;;;;5164467;28;19926;-25
2022/03/14 07:20:30;;;;;;;;;;;9.00;82.30;;;;;;5163859;28;19921;-23
2022/03/14 07:23:03;;;;;;;;;;;9.00;82.20;;;;;;5162894;28;19950;-24
2022/03/14 07:25:39;;;;;;;;;;;9.10;82.20;;;;;;5165145;28;19932;-25
2022/03/14 07:28:12;;;;;;;;;;;9.10;81.50;;;;;;5150010;28;19925;-24
2022/03/14 07:30:45;;;;;;;;;;;9.20;81.60;;;;;;5165329;28;20290;-25
2022/03/14 07:33:18;;;;;;;;;;;9.20;81.20;;;;;;5166574;28;19929;-23
2022/03/14 07:35:51;;;;;;;;;;;9.30;81.30;;;;;;5167918;28;19936;-23
2022/03/14 07:38:23;;;;;;;;;;;9.40;80.50;;;;;;5166867;28;19937;-24
2022/03/14 07:40:56;;;;;;;;;;;9.40;80.10;;;;;;5165047;28;20460;-25
2022/03/14 07:43:31;;;;;;;;;;;9.50;79.40;;;;;;5162477;28;19926;-24
2022/03/14 07:46:03;;;;;;;;;;;9.60;79.30;;;;;;5164548;28;19933;-24
2022/03/14 07:48:35;;;;;;;;;;;9.70;78.90;;;;;;5165363;28;20455;-25
2022/03/14 07:51:08;;;;;;;;;;;9.70;78.40;;;;;;5164335;28;20448;-24
2022/03/14 07:53:40;;;;;;;;;;;9.70;78.00;;;;;;5167028;28;19925;-24
2022/03/14 07:56:16;;;;;;;;;;;9.80;77.80;;;;;;5165605;28;19925;-25
2022/03/14 07:58:49;;;;;;;;;;;9.80;77.00;;;;;;5165001;28;19929;-25
2022/03/14 08:01:21;;;;;;;;;;;9.80;76.70;;;;;;5162048;28;19929;-23
2022/03/14 08:03:53;;;;;;;;;;;10.00;76.70;;;;;;5164330;28;19932;-23
2022/03/14 08:06:26;;;;;;;;;;;10.00;76.20;;;;;;5170441;28;19925;-25
2022/03/14 08:09:00;;;;;;;;;;;10.10;75.10;;;;;;5166220;28;19946;-24
2022/03/14 08:11:33;;;;;;;;;;;10.10;74.90;;;;;;5166878;28;19925;-24
2022/03/14 08:14:05;;;;;;;;;;;10.20;74.50;;;;;;5169094;28;20373;-26
2022/03/14 08:16:38;;;;;;;;;;;10.20;74.30;;;;;;5164921;28;20304;-25
2022/03/14 08:19:10;;;;;;;;;;;10.20;74.50;;;;;;5168005;28;19930;-23
2022/03/14 08:21:42;;;;;;;;;;;10.30;74.30;;;;;;5168558;28;19932;-24
2022/03/14 08:24:14;;;;;;;;;;;10.30;74.70;;;;;;5158893;28;20173;-25
2022/03/14 08:26:47;;;;;;;;;;;10.30;74.20;;;;;;5170638;28;19944;-23
2022/03/14 08:29:19;;;;;;;;;;;10.40;73.80;;;;;;5156210;28;19925;-23
2022/03/14 08:31:51;;;;;;;;;;;10.40;73.70;;;;;;5167692;28;19932;-23
2022/03/14 08:34:25;;;;;;;;;;;10.40;73.90;;;;;;5171682;28;19925;-23
2022/03/14 08:36:57;;;;;;;;;;;10.40;74.00;;;;;;5168712;28;20389;-23
2022/03/14 08:39:31;;;;;;;;;;;10.50;73.20;;;;;;5169766;28;19925;-23
2022/03/14 08:42:04;;;;;;;;;;;10.50;73.20;;;;;;5142361;28;19925;-23
2022/03/14 08:44:36;;;;;;;;;;;10.60;72.40;;;;;;5167639;28;19926;-23
2022/03/14 08:47:08;;;;;;;;;;;10.60;71.90;;;;;;5168360;28;19943;-23
2022/03/14 08:49:41;;;;;;;;;;;10.60;71.40;;;;;;5169441;28;20263;-22
2022/03/14 08:52:13;;;;;;;;;;;10.70;71.60;;;;;;5169941;28;22241;-24
2022/03/14 08:54:45;;;;;;;;;;;10.70;71.00;;;;;;5169436;28;20356;-24
2022/03/14 08:57:18;;;;;;;;;;;10.70;70.50;;;;;;5149754;28;19921;-25
2022/03/14 08:59:50;;;;;;;;;;;10.80;70.30;;;;;;5167029;28;19925;-24
2022/03/14 09:02:22;;;;;;;;;;;10.80;70.30;;;;;;5169488;28;19925;-24
2022/03/14 09:04:54;;;;;;;;;;;10.80;69.50;;;;;;5168820;28;19925;-23
2022/03/14 09:07:30;;;;;;;;;;;10.90;69.90;;;;;;5142170;28;19936;-23
2022/03/14 09:10:15;;;;;;;;;;;10.90;69.90;;;;;;5166917;28;20282;-23
2022/03/14 09:12:55;;;;;;;;;;;10.90;70.10;;;;;;5151927;28;20297;-24
2022/03/14 09:15:28;;;;;;;;;;;11.00;70.00;;;;;;5165443;28;19948;-23
2022/03/14 09:18:03;;;;;;;;;;;11.10;69.50;;;;;;5145461;28;20353;-25
2022/03/14 09:20:38;;;;;;;;;;;11.10;68.50;;;;;;5159512;28;19925;-23
2022/03/14 09:23:10;;;;;;;;;;;11.10;68.40;;;;;;5154485;28;19925;-23
2022/03/14 09:25:43;;;;;;;;;;;11.20;67.70;;;;;;5151532;28;19929;-24
2022/03/14 09:28:15;;;;;;;;;;;11.20;67.10;;;;;;5157635;28;19929;-24
2022/03/14 09:30:47;;;;;;;;;;;11.20;67.70;;;;;;5160917;28;20036;-35
2022/03/14 09:33:20;;;;;;;;;;;11.30;67.90;;;;;;5163664;28;19930;-24
2022/03/14 09:35:53;;;;;;;;;;;11.30;67.70;;;;;;5166828;28;19925;-24
2022/03/14 09:38:26;;;;;;;;;;;11.40;67.40;;;;;;5151734;28;20564;-22
2022/03/14 09:41:03;;;;;;;;;;;11.40;67.20;;;;;;5162242;28;19925;-24
2022/03/14 09:43:39;;;;;;;;;;;11.50;67.20;;;;;;5165600;28;19925;-24
2022/03/14 09:46:12;;;;;;;;;;;11.50;67.50;;;;;;5156701;28;19925;-23
2022/03/14 09:48:49;;;;;;;;;;;11.60;67.20;;;;;;5155099;28;19925;-23
2022/03/14 09:51:21;;;;;;;;;;;11.60;67.80;;;;;;5160731;28;19936;-25
2022/03/14 09:53:54;;;;;;;;;;;11.70;67.20;;;;;;5162094;28;19929;-23
2022/03/14 09:56:26;;;;;;;;;;;11.70;66.90;;;;;;5167355;28;19932;-25
2022/03/14 09:59:02;;;;;;;;;;;11.80;67.80;;;;;;5165618;28;20293;-24
2022/03/14 10:01:35;;;;;;;;;;;12.00;66.40;;;;;;5159960;28;19925;-26
2022/03/14 10:04:08;;;;;;;;;;;12.20;66.30;;;;;;5163836;28;19925;-23
2022/03/14 10:06:40;;;;;;;;;;;12.30;65.80;;;;;;5153680;28;19926;-24
2022/03/14 10:09:12;;;;;;;;;;;12.40;66.00;;;;;;5164685;28;19921;-24
2022/03/14 10:11:45;;;;;;;;;;;12.60;65.20;;;;;;5165105;28;19926;-24
2022/03/14 10:14:19;;;;;;;;;;;12.70;65.40;;;;;;5149801;28;19932;-23
2022/03/14 10:16:54;;;;;;;;;;;12.80;64.40;;;;;;5159151;28;20385;-22
2022/03/14 10:19:30;;;;;;;;;;;12.90;64.30;;;;;;5164846;28;19932;-23
2022/03/14 10:22:15;;;;;;;;;;;12.90;64.40;;;;;;5165550;28;19925;-24
2022/03/14 10:24:48;;;;;;;;;;;12.90;63.60;;;;;;5166268;28;20396;-24
2022/03/14 10:27:25;;;;;;;;;;;12.90;63.10;;;;;;5153881;28;19925;-25
2022/03/14 10:29:58;;;;;;;;;;;12.90;64.00;;;;;;5131710;28;19932;-23
2022/03/14 10:32:30;;;;;;;;;;;13.00;64.00;;;;;;5167016;28;19933;-26
2022/03/14 10:35:04;;;;;;;;;;;13.00;64.20;;;;;;5166116;28;20536;-25
2022/03/14 10:37:37;;;;;;;;;;;13.00;64.20;;;;;;5156147;28;20282;-24
2022/03/14 10:40:10;;;;;;;;;;;13.10;63.50;;;;;;5168099;28;19929;-23
2022/03/14 10:42:43;;;;;;;;;;;13.00;62.50;;;;;;5161122;28;22647;-23
2022/03/14 10:45:18;;;;;;;;;;;13.00;62.90;;;;;;5167385;28;19925;-24
2022/03/14 10:47:54;;;;;;;;;;;13.10;62.90;;;;;;5163001;28;19926;-25
2022/03/14 10:50:34;;;;;;;;;;;13.20;62.70;;;;;;5161493;28;19921;-24
2022/03/14 10:53:10;;;;;;;;;;;13.20;62.80;;;;;;5167058;28;20872;-24
2022/03/14 10:55:56;;;;;;;;;;;13.30;62.50;;;;;;5196590;23;20043;-80
2022/03/14 10:58:33;;;;;;;;;;;13.40;62.20;;;;;;5173169;28;19952;-81
2022/03/14 11:01:07;;;;;;;;;;;13.50;62.10;;;;;;5174262;28;20160;-81
2022/03/14 11:03:41;;;;;;;;;;;13.50;60.80;;;;;;5197763;28;19932;-78
2022/03/14 11:06:19;;;;;;;;;;;13.50;60.90;;;;;;5183309;28;19932;-79
2022/03/14 11:08:51;;;;;;;;;;;13.50;60.90;;;;;;5193564;28;19929;-80
2022/03/14 11:11:24;;;;;;;;;;;13.40;61.70;;;;;;5190853;28;19935;-74
2022/03/14 11:13:57;;;;;;;;;;;13.40;61.40;;;;;;5188624;28;19929;-74
2022/03/14 11:16:29;;;;;;;;;;;13.60;61.60;;;;;;5186121;28;19931;-78
2022/03/14 11:19:02;;;;;;;;;;;13.70;62.30;;;;;;5184934;28;19925;-78
2022/03/14 11:21:36;;;;;;;;;;;13.90;61.20;;;;;;5172814;28;19925;-78
2022/03/14 11:24:08;;;;;;;;;;;14.00;60.60;;;;;;5167109;28;19924;-79
2022/03/14 11:26:46;;;;;;;;;;;14.00;61.10;;;;;;5187950;28;19947;-80
2022/03/14 11:29:19;;;;;;;;;;;14.10;60.40;;;;;;5168637;28;19932;-79
2022/03/14 11:31:52;;;;;;;;;;;14.10;60.40;;;;;;5191567;28;19929;-80
2022/03/14 11:34:26;;;;;;;;;;;14.10;60.50;;;;;;5190848;28;19929;-80
2022/03/14 11:36:58;;;;;;;;;;;14.20;59.70;;;;;;5160332;28;19924;-80
2022/03/14 11:39:31;;;;;;;;;;;14.10;60.00;;;;;;5199601;28;19921;-79
2022/03/14 11:42:04;;;;;;;;;;;14.00;60.50;;;;;;5180791;28;19940;-79
2022/03/14 11:44:36;;;;;;;;;;;14.00;60.30;;;;;;5179450;28;19943;-81
2022/03/14 11:47:10;;;;;;;;;;;14.00;60.50;;;;;;5168960;28;19936;-79
2022/03/14 11:49:43;;;;;;;;;;;14.10;59.50;;;;;;5192300;28;19920;-79
2022/03/14 11:52:19;;;;;;;;;;;14.20;60.40;;;;;;5189805;28;19925;-80
2022/03/14 11:54:58;;;;;;;;;;;14.30;60.60;;;;;;5177205;28;19936;-82
2022/03/14 11:57:35;;;;;;;;;;;14.40;59.90;;;;;;5164308;28;20349;-79
2022/03/14 12:00:32;;;;;;;;;;;14.40;58.10;;;;;;5188811;28;19940;-82
2022/03/14 12:03:07;;;;;;;;;;;14.50;59.00;;;;;;5191096;28;19925;-80
2022/03/14 12:05:39;;;;;;;;;;;14.60;58.10;;;;;;5193996;28;19935;-80
2022/03/14 12:08:15;;;;;;;;;;;14.60;58.90;;;;;;5175705;28;19940;-80
2022/03/14 12:10:47;;;;;;;;;;;14.70;57.60;;;;;;5173001;28;19948;-83
2022/03/14 12:13:38;;;;;;;;;;;14.70;57.10;;;;;;5150378;28;19921;-79
2022/03/14 12:16:29;;;;;;;;;;;14.60;57.70;;;;;;5176017;28;19921;-80
2022/03/14 12:19:23;;;;;;;;;;;14.60;57.70;;;;;;5168846;28;19932;-81
2022/03/14 12:21:57;;;;;;;;;;;14.60;58.40;;;;;;5151790;28;20935;-81
2022/03/14 12:24:35;;;;;;;;;;;14.60;57.70;;;;;;5180105;28;19925;-81
2022/03/14 12:27:46;;;;;;;;;;;14.50;56.90;;;;;;5174037;28;19929;-82
2022/03/14 12:30:37;;;;;;;;;;;14.60;57.70;;;;;;5172514;28;19926;-82
2022/03/14 12:33:28;;;;;;;;;;;14.70;58.10;;;;;;5185278;28;19929;-81
2022/03/14 12:36:19;;;;;;;;;;;14.80;57.60;;;;;;5146102;28;19971;-79
2022/03/14 12:39:08;;;;;;;;;;;14.80;56.90;;;;;;5170827;28;20552;-81
2022/03/14 12:41:43;;;;;;;;;;;14.90;55.50;;;;;;5161731;28;19932;-79
2022/03/14 12:44:16;;;;;;;;;;;14.90;55.70;;;;;;5140168;28;20292;-78
2022/03/14 12:46:55;;;;;;;;;;;14.90;55.90;;;;;;5168556;28;19924;-79
2022/03/14 12:49:39;;;;;;;;;;;14.90;56.40;;;;;;5174248;28;19932;-78
2022/03/14 12:52:16;;;;;;;;;;;14.90;57.30;;;;;;5174576;28;19929;-79
2022/03/14 12:54:48;;;;;;;;;;;14.90;56.30;;;;;;5152760;28;20493;-81
2022/03/14 12:57:23;;;;;;;;;;;14.80;55.90;;;;;;5170274;28;19933;-79
2022/03/14 12:59:58;;;;;;;;;;;14.90;56.00;;;;;;5158165;28;19931;-78
2022/03/14 13:02:32;;;;;;;;;;;14.90;56.20;;;;;;5178709;28;20331;-77
2022/03/14 13:05:05;;;;;;;;;;;15.00;56.20;;;;;;5169794;28;19941;-79
2022/03/14 13:07:38;;;;;;;;;;;15.00;55.50;;;;;;5190226;28;19932;-79
2022/03/14 13:10:10;;;;;;;;;;;14.90;55.60;;;;;;5185021;28;19935;-74
2022/03/14 13:12:50;;;;;;;;;;;14.90;55.00;;;;;;5189333;28;19930;-74
2022/03/14 13:15:24;;;;;;;;;;;14.90;55.20;;;;;;5187351;28;19929;-74
2022/03/14 13:17:56;;;;;;;;;;;14.90;56.90;;;;;;5176411;28;19925;-73
2022/03/14 13:20:29;;;;;;;;;;;15.00;56.10;;;;;;5165682;28;20127;-75
2022/03/14 13:23:12;;;;;;;;;;;15.00;55.80;;;;;;5179790;28;19925;-73
2022/03/14 13:25:48;;;;;;;;;;;15.00;55.10;;;;;;5161229;28;19929;-74
2022/03/14 13:28:26;;;;;;;;;;;15.00;55.90;;;;;;5177231;28;19929;-74
2022/03/14 13:30:59;;;;;;;;;;;15.00;55.00;;;;;;5171645;28;20312;-73
2022/03/14 13:33:36;;;;;;;;;;;15.00;54.90;;;;;;5183990;28;19928;-74
2022/03/14 13:36:10;;;;;;;;;;;15.00;56.10;;;;;;5190777;28;19921;-74
2022/03/14 13:38:45;;;;;;;;;;;15.00;55.40;;;;;;5184397;28;20368;-73
2022/03/14 13:41:22;;;;;;;;;;;15.10;55.70;;;;;;5179774;28;19925;-73
2022/03/14 13:43:56;;;;;;;;;;;15.10;54.60;;;;;;5186896;28;20431;-73
2022/03/14 13:46:39;;;;;;;;;;;15.00;54.70;;;;;;5176839;28;19925;-73
2022/03/14 13:49:18;;;;;;;;;;;15.00;54.90;;;;;;5176797;28;19936;-73
2022/03/14 13:51:56;;;;;;;;;;;15.00;54.40;;;;;;5170643;28;19924;-73
2022/03/14 13:54:30;;;;;;;;;;;15.10;54.60;;;;;;5165904;28;19925;-79
2022/03/14 13:57:07;;;;;;;;;;;15.10;55.30;;;;;;5160366;28;19924;-78
2022/03/14 13:59:46;;;;;;;;;;;15.20;54.90;;;;;;5168806;28;19971;-78
2022/03/14 14:02:31;;;;;;;;;;;15.20;55.60;;;;;;5167765;28;19925;-80
2022/03/14 14:05:14;;;;;;;;;;;15.20;53.50;;;;;;5181522;28;19941;-78
2022/03/14 14:07:50;;;;;;;;;;;15.20;53.20;;;;;;5163445;28;19932;-80
2022/03/14 14:10:23;;;;;;;;;;;15.20;53.90;;;;;;5191614;28;20564;-79
2022/03/14 14:13:00;;;;;;;;;;;15.20;54.30;;;;;;5193646;28;19925;-79
2022/03/14 14:15:44;;;;;;;;;;;15.30;54.80;;;;;;5187363;28;20400;-79
2022/03/14 14:18:17;;;;;;;;;;;15.30;53.90;;;;;;5152178;28;20428;-79
2022/03/14 14:20:51;;;;;;;;;;;15.30;54.40;;;;;;5190287;28;19928;-81
2022/03/14 14:23:25;;;;;;;;;;;15.40;53.40;;;;;;5192491;28;19929;-80
2022/03/14 14:26:13;;;;;;;;;;;15.40;54.60;;;;;;5185882;28;19932;-83
2022/03/14 14:28:45;;;;;;;;;;;15.40;54.10;;;;;;5199490;28;20400;-80
2022/03/14 14:31:19;;;;;;;;;;;15.50;52.80;;;;;;5191788;28;19932;-83
2022/03/14 14:33:52;;;;;;;;;;;15.40;52.70;;;;;;5158601;28;19932;-79
2022/03/14 14:36:24;;;;;;;;;;;15.40;54.00;;;;;;5149043;28;19925;-82
2022/03/14 14:38:57;;;;;;;;;;;15.40;54.00;;;;;;5166958;28;20406;-82
2022/03/14 14:41:29;;;;;;;;;;;15.50;54.20;;;;;;5157543;28;19924;-80
2022/03/14 14:44:02;;;;;;;;;;;15.50;53.20;;;;;;5197245;28;19929;-82
2022/03/14 14:46:34;;;;;;;;;;;15.50;53.90;;;;;;5188345;28;19929;-76
2022/03/14 14:49:09;;;;;;;;;;;15.60;52.40;;;;;;5191829;28;19924;-78
2022/03/14 14:51:44;;;;;;;;;;;15.60;52.20;;;;;;5193587;28;19932;-80
2022/03/14 14:54:16;;;;;;;;;;;15.60;52.30;;;;;;5168772;28;19948;-78
2022/03/14 14:56:51;;;;;;;;;;;15.50;53.40;;;;;;5165996;28;19931;-78
2022/03/14 14:59:24;;;;;;;;;;;15.50;52.40;;;;;;5187483;28;20497;-80
2022/03/14 15:01:57;;;;;;;;;;;15.50;52.10;;;;;;5162781;28;19925;-79
2022/03/14 15:04:33;;;;;;;;;;;15.50;52.60;;;;;;5182710;28;20440;-81
2022/03/14 15:07:05;;;;;;;;;;;15.50;52.20;;;;;;5177359;28;20305;-80